KRCM

Skyhaven Airport

Warrensburg, Missouri, USA
METAR KRCM 241255Z AUTO 00000KT 10SM CLR 20/18 A3012 RMK AO2
Observed Flight Rules
May-24 @ 12:55 UTC (53 minutes ago) Visual Flight Rules
Visibility Clouds
10 miles
  • Clear skies
Temperatures Readings
Current 20°C / 68°F
Dewpoint 18°C / 64°F
Humidity 88%
Altimeter 30.12" Hg
Pressure 1020 hPa
Elevation 244
METAR KRCM 241255Z AUTO 00000KT 10SM CLR 20/18 A3012 RMK AO2
Observed Flight Rules
May-24 @ 12:55 UTC
(53 minutes ago)
VFR
Clouds
  • Clear skies
Temperature Dewpoint
20°C / 68°F 18°C / 64°F
Humidity Altimeter Pressure
88% 30.12" Hg 1020 hPa